Time;durP1;ratioP1;P1;durP2;ratioP2;P2;SDS_P1;SDS_P2;PMS_P1;PMS_P2;Temp;Humidity;BMP_temperature;BMP_pressure;BME280_temperature;BME280_humidity;BME280_pressure;Samples;Min_cycle;Max_cycle;Signal;HPM_P1;HPM_P2
2022/04/24 00:01:32;;;;;;;0.60;0.60;;;10.30;1.00;;;;;;5095795;28;20198;-77
2022/04/24 00:03:58;;;;;;;0.60;0.60;;;10.50;1.00;;;;;;5096094;28;20174;-78
2022/04/24 00:06:24;;;;;;;0.50;0.50;;;10.60;1.00;;;;;;5095402;28;20341;-77
2022/04/24 00:08:49;;;;;;;0.60;0.60;;;10.50;1.00;;;;;;5101087;28;20170;-82
2022/04/24 00:11:16;;;;;;;0.70;0.70;;;10.60;1.00;;;;;;5097829;28;20201;-78
2022/04/24 00:13:42;;;;;;;0.70;0.70;;;10.70;1.00;;;;;;5095102;28;20178;-78
2022/04/24 00:16:09;;;;;;;0.80;0.80;;;10.70;1.00;;;;;;5100485;28;20174;-79
2022/04/24 00:18:35;;;;;;;0.60;0.60;;;10.60;1.00;;;;;;5096747;28;20177;-78
2022/04/24 00:21:01;;;;;;;0.70;0.70;;;10.70;1.00;;;;;;5092899;28;20216;-77
2022/04/24 00:23:27;;;;;;;0.60;0.60;;;10.60;1.00;;;;;;5094946;28;20188;-81
2022/04/24 00:25:53;;;;;;;0.60;0.60;;;10.70;1.00;;;;;;5096312;28;20214;-81
2022/04/24 00:28:19;;;;;;;0.63;0.63;;;10.60;1.00;;;;;;5094548;28;20682;-80
2022/04/24 00:30:44;;;;;;;0.67;0.67;;;10.60;1.00;;;;;;5094018;28;20634;-79
2022/04/24 00:33:10;;;;;;;0.63;0.63;;;10.60;1.00;;;;;;5094407;28;20205;-77
2022/04/24 00:35:35;;;;;;;0.60;0.60;;;10.60;1.00;;;;;;5094411;28;20184;-79
2022/04/24 00:38:01;;;;;;;0.60;0.60;;;10.60;1.00;;;;;;5094799;28;20503;-77
2022/04/24 00:40:26;;;;;;;0.53;0.53;;;10.50;1.00;;;;;;5094264;28;20209;-77
2022/04/24 00:42:52;;;;;;;0.70;0.70;;;10.40;1.00;;;;;;5093338;28;20698;-80
2022/04/24 00:45:18;;;;;;;0.60;0.60;;;10.30;1.00;;;;;;5095146;28;20655;-80
2022/04/24 00:47:44;;;;;;;0.70;0.70;;;10.50;1.00;;;;;;5105559;28;20312;-79
2022/04/24 00:50:10;;;;;;;0.60;0.60;;;10.50;1.00;;;;;;5095375;28;20180;-79
2022/04/24 00:52:36;;;;;;;0.60;0.60;;;10.30;1.00;;;;;;5098598;28;20178;-78
2022/04/24 00:55:02;;;;;;;0.60;0.60;;;10.20;1.00;;;;;;5094707;28;20576;-79
2022/04/24 00:57:28;;;;;;;0.60;0.60;;;10.20;1.00;;;;;;5095381;28;20177;-80
2022/04/24 00:59:54;;;;;;;0.60;0.60;;;10.20;1.00;;;;;;5097988;28;20173;-79
2022/04/24 01:02:19;;;;;;;0.60;0.60;;;10.40;1.00;;;;;;5098882;28;20554;-78
2022/04/24 01:04:45;;;;;;;0.63;0.63;;;10.40;1.00;;;;;;5093790;28;20174;-77
2022/04/24 01:07:11;;;;;;;0.70;0.70;;;10.40;1.00;;;;;;5098469;28;20217;-79
2022/04/24 01:09:37;;;;;;;0.70;0.70;;;10.40;1.00;;;;;;5099134;28;20638;-80
2022/04/24 01:12:04;;;;;;;0.70;0.70;;;10.40;1.00;;;;;;5094453;28;20254;-79
2022/04/24 01:14:30;;;;;;;0.60;0.60;;;10.20;1.00;;;;;;5094640;28;20550;-78
2022/04/24 01:16:57;;;;;;;0.60;0.60;;;10.20;1.00;;;;;;5094649;28;20240;-79
2022/04/24 01:19:24;;;;;;;0.60;0.60;;;10.10;1.00;;;;;;5094150;28;20185;-84
2022/04/24 01:21:50;;;;;;;0.70;0.70;;;10.10;1.00;;;;;;5094698;28;20322;-79
2022/04/24 01:24:18;;;;;;;0.70;0.70;;;10.00;1.00;;;;;;5095177;28;20637;-79
2022/04/24 01:26:44;;;;;;;0.70;0.70;;;9.90;1.00;;;;;;5093202;28;20202;-76
2022/04/24 01:29:11;;;;;;;0.60;0.60;;;9.80;15.30;;;;;;5092808;28;20235;-78
2022/04/24 01:31:37;;;;;;;0.60;0.60;;;9.70;17.90;;;;;;5093341;28;20193;-77
2022/04/24 01:34:03;;;;;;;0.70;0.70;;;9.80;16.30;;;;;;5091572;28;20174;-77
2022/04/24 01:36:29;;;;;;;0.60;0.60;;;9.80;1.00;;;;;;5093326;28;20243;-77
2022/04/24 01:38:55;;;;;;;0.70;0.70;;;9.90;1.00;;;;;;5092689;28;20231;-77
2022/04/24 01:41:20;;;;;;;0.67;0.67;;;9.90;1.00;;;;;;5092809;28;20541;-77
2022/04/24 01:43:47;;;;;;;0.70;0.70;;;9.90;1.00;;;;;;5092900;28;20170;-76
2022/04/24 01:46:13;;;;;;;0.63;0.63;;;9.90;1.00;;;;;;5092804;28;20645;-77
2022/04/24 01:48:38;;;;;;;0.60;0.60;;;10.00;1.00;;;;;;5092872;28;20181;-76
2022/04/24 01:51:06;;;;;;;0.70;0.70;;;10.00;1.00;;;;;;5092114;28;20522;-77
2022/04/24 01:53:32;;;;;;;0.67;0.67;;;10.10;1.00;;;;;;5104520;28;20173;-80
2022/04/24 01:55:59;;;;;;;0.60;0.60;;;10.10;1.00;;;;;;5096366;28;20170;-78
2022/04/24 01:58:26;;;;;;;0.60;0.60;;;10.00;1.00;;;;;;5097693;28;20683;-80
2022/04/24 02:00:52;;;;;;;0.70;0.70;;;9.90;1.00;;;;;;5104165;28;20217;-80
2022/04/24 02:03:18;;;;;;;0.50;0.50;;;9.90;1.00;;;;;;5110626;28;20237;-81
2022/04/24 02:05:44;;;;;;;0.80;0.80;;;9.80;1.00;;;;;;5100235;28;20178;-79
2022/04/24 02:08:10;;;;;;;0.60;0.60;;;9.90;1.00;;;;;;5098506;28;20213;-77
2022/04/24 02:10:36;;;;;;;0.57;0.57;;;9.90;1.00;;;;;;5101459;28;20217;-80
2022/04/24 02:13:02;;;;;;;0.50;0.50;;;9.80;19.60;;;;;;5106090;28;20541;-80
2022/04/24 02:15:28;;;;;;;0.70;0.70;;;9.80;37.10;;;;;;5096083;28;20177;-78
2022/04/24 02:17:55;;;;;;;0.60;0.60;;;9.80;42.30;;;;;;5093073;28;20178;-77
2022/04/24 02:20:20;;;;;;;0.60;0.60;;;9.90;72.50;;;;;;5092426;28;20198;-78
2022/04/24 02:22:46;;;;;;;0.60;0.60;;;9.90;99.90;;;;;;5092936;28;20217;-77
2022/04/24 02:25:11;;;;;;;0.70;0.70;;;9.90;99.90;;;;;;5092714;28;20174;-79
2022/04/24 02:27:37;;;;;;;0.60;0.60;;;9.80;99.90;;;;;;5095438;28;20217;-78
2022/04/24 02:30:03;;;;;;;0.60;0.60;;;9.80;99.90;;;;;;5096936;28;20523;-78
2022/04/24 02:32:29;;;;;;;0.70;0.70;;;9.80;99.90;;;;;;5097299;28;20178;-78
2022/04/24 02:34:54;;;;;;;0.70;0.70;;;9.80;99.90;;;;;;5094428;28;20241;-77
2022/04/24 02:37:20;;;;;;;0.60;0.60;;;9.60;99.90;;;;;;5095605;28;20228;-78
2022/04/24 02:39:45;;;;;;;0.60;0.60;;;9.70;99.90;;;;;;5095054;28;20598;-77
2022/04/24 02:42:12;;;;;;;0.70;0.70;;;9.70;99.90;;;;;;5094794;28;20201;-79
2022/04/24 02:44:37;;;;;;;0.50;0.50;;;9.60;99.90;;;;;;5093338;28;20216;-77
2022/04/24 02:47:03;;;;;;;0.60;0.60;;;9.60;99.90;;;;;;5093271;28;20249;-77
2022/04/24 02:49:29;;;;;;;0.70;0.70;;;9.60;99.90;;;;;;5098457;28;20173;-77
2022/04/24 02:51:54;;;;;;;0.60;0.60;;;9.60;99.90;;;;;;5099399;28;20197;-77
2022/04/24 02:54:20;;;;;;;0.60;0.60;;;9.60;99.90;;;;;;5100393;28;20181;-77
2022/04/24 02:56:45;;;;;;;0.70;0.70;;;9.50;99.90;;;;;;5098435;28;20204;-76
2022/04/24 02:59:11;;;;;;;0.60;0.60;;;9.50;99.90;;;;;;5097424;28;20241;-77
2022/04/24 03:01:39;;;;;;;0.70;0.70;;;9.50;99.90;;;;;;5091973;28;20217;-77
2022/04/24 03:04:05;;;;;;;0.60;0.60;;;9.50;99.90;;;;;;5091856;28;20184;-77
2022/04/24 03:06:30;;;;;;;0.70;0.70;;;9.60;99.90;;;;;;5091363;28;20212;-77
2022/04/24 03:08:56;;;;;;;0.70;0.70;;;9.50;99.90;;;;;;5091944;28;20174;-77
2022/04/24 03:11:21;;;;;;;0.60;0.60;;;9.60;99.90;;;;;;5091609;28;20206;-77
2022/04/24 03:13:47;;;;;;;0.60;0.60;;;9.50;99.90;;;;;;5091776;28;20174;-77
2022/04/24 03:16:13;;;;;;;0.57;0.57;;;9.50;99.90;;;;;;5091581;28;20268;-77
2022/04/24 03:18:38;;;;;;;0.70;0.70;;;9.50;99.90;;;;;;5091799;28;20165;-77
2022/04/24 03:21:04;;;;;;;0.63;0.63;;;9.40;99.90;;;;;;5091172;28;20189;-77
2022/04/24 03:23:29;;;;;;;0.60;0.60;;;9.30;99.90;;;;;;5091570;28;20247;-77
2022/04/24 03:25:55;;;;;;;0.60;0.60;;;9.40;99.90;;;;;;5091532;28;20181;-77
2022/04/24 03:28:20;;;;;;;0.60;0.60;;;9.30;99.90;;;;;;5091211;28;20232;-77
2022/04/24 03:30:46;;;;;;;0.70;0.70;;;9.30;99.90;;;;;;5090688;28;20221;-77
2022/04/24 03:33:12;;;;;;;0.70;0.70;;;9.30;99.90;;;;;;5093161;28;20173;-77
2022/04/24 03:35:37;;;;;;;0.60;0.60;;;9.30;99.90;;;;;;5093769;28;20181;-77
2022/04/24 03:38:03;;;;;;;0.60;0.60;;;9.30;99.90;;;;;;5093867;28;20178;-77
2022/04/24 03:40:29;;;;;;;0.60;0.60;;;9.30;99.90;;;;;;5093990;28;20189;-77
2022/04/24 03:42:55;;;;;;;0.70;0.70;;;9.20;99.90;;;;;;5093876;28;20209;-77
2022/04/24 03:45:20;;;;;;;0.60;0.60;;;9.20;99.90;;;;;;5092472;28;20182;-77
2022/04/24 03:47:49;;;;;;;0.70;0.70;;;9.10;99.90;;;;;;5092918;28;20300;-78
2022/04/24 03:50:14;;;;;;;0.70;0.70;;;9.10;99.90;;;;;;5093520;28;20198;-76
2022/04/24 03:52:40;;;;;;;0.60;0.60;;;9.20;99.90;;;;;;5093957;28;20192;-77
2022/04/24 03:55:07;;;;;;;0.70;0.70;;;9.10;99.90;;;;;;5093089;28;20174;-77
2022/04/24 03:57:33;;;;;;;0.60;0.60;;;9.20;99.90;;;;;;5092934;28;20198;-77
2022/04/24 03:59:59;;;;;;;0.70;0.70;;;9.30;99.90;;;;;;5097906;28;20190;-77
2022/04/24 04:02:25;;;;;;;0.70;0.70;;;9.30;99.90;;;;;;5100020;28;20174;-77
2022/04/24 04:04:51;;;;;;;0.60;0.60;;;9.10;99.90;;;;;;5099367;28;20567;-77
2022/04/24 04:07:17;;;;;;;0.70;0.70;;;9.10;99.90;;;;;;5099557;28;20690;-77
2022/04/24 04:09:42;;;;;;;0.67;0.67;;;9.10;99.90;;;;;;5097605;28;20181;-76
2022/04/24 04:12:09;;;;;;;0.70;0.70;;;9.10;99.90;;;;;;5092982;28;20251;-76
2022/04/24 04:14:34;;;;;;;0.60;0.60;;;9.00;99.90;;;;;;5091580;28;20538;-77
2022/04/24 04:17:00;;;;;;;0.70;0.70;;;9.00;99.90;;;;;;5092947;28;20182;-77
2022/04/24 04:19:25;;;;;;;0.70;0.70;;;9.00;99.90;;;;;;5094387;28;20174;-77
2022/04/24 04:21:51;;;;;;;0.70;0.70;;;9.00;99.90;;;;;;5094739;28;20640;-77
2022/04/24 04:24:17;;;;;;;0.50;0.50;;;9.00;99.90;;;;;;5094686;28;20665;-77
2022/04/24 04:26:42;;;;;;;0.60;0.60;;;9.00;99.90;;;;;;5094395;28;20213;-77
2022/04/24 04:29:08;;;;;;;0.80;0.80;;;9.00;99.90;;;;;;5093978;28;20590;-77
2022/04/24 04:31:33;;;;;;;0.70;0.70;;;9.00;99.90;;;;;;5094616;28;20206;-77
2022/04/24 04:33:59;;;;;;;0.70;0.70;;;9.00;99.90;;;;;;5094498;28;20188;-76
2022/04/24 04:36:25;;;;;;;0.80;0.80;;;8.90;99.90;;;;;;5097212;28;20178;-79
2022/04/24 04:38:50;;;;;;;0.70;0.70;;;9.00;99.90;;;;;;5095645;28;20247;-78
2022/04/24 04:41:16;;;;;;;0.70;0.70;;;8.90;99.90;;;;;;5093883;28;20193;-77
2022/04/24 04:43:41;;;;;;;0.70;0.70;;;8.80;99.90;;;;;;5094832;28;20196;-78
2022/04/24 04:46:07;;;;;;;0.60;0.60;;;8.70;99.90;;;;;;5096411;28;20210;-77
2022/04/24 04:48:33;;;;;;;0.70;0.70;;;8.60;99.90;;;;;;5095560;28;20676;-76
2022/04/24 04:50:58;;;;;;;0.70;0.70;;;8.60;99.90;;;;;;5094468;28;20561;-77
2022/04/24 04:53:24;;;;;;;0.70;0.70;;;8.50;99.90;;;;;;5094899;28;20185;-77
2022/04/24 04:55:49;;;;;;;0.70;0.70;;;8.30;99.90;;;;;;5094271;28;20189;-76
2022/04/24 04:58:15;;;;;;;0.70;0.70;;;8.20;99.90;;;;;;5094185;28;20356;-76
2022/04/24 05:00:41;;;;;;;0.60;0.60;;;8.10;99.90;;;;;;5093616;28;20259;-77
2022/04/24 05:03:07;;;;;;;0.70;0.70;;;8.00;99.90;;;;;;5094053;28;20185;-77
2022/04/24 05:05:33;;;;;;;0.73;0.73;;;8.00;99.90;;;;;;5093900;28;20537;-76
2022/04/24 05:07:59;;;;;;;0.70;0.70;;;7.90;99.90;;;;;;5093689;28;20213;-76
2022/04/24 05:10:24;;;;;;;0.70;0.70;;;7.90;99.90;;;;;;5093070;28;20221;-76
2022/04/24 05:12:50;;;;;;;0.63;0.63;;;7.90;99.90;;;;;;5093718;28;20182;-76
2022/04/24 05:15:16;;;;;;;0.70;0.70;;;7.80;99.90;;;;;;5093706;28;20174;-76
2022/04/24 05:17:42;;;;;;;0.73;0.73;;;7.80;99.90;;;;;;5093812;28;20242;-77
2022/04/24 05:20:13;;;;;;;0.60;0.60;;;7.80;99.90;;;;;;5093201;28;20177;-77
2022/04/24 05:22:40;;;;;;;0.70;0.70;;;7.80;99.90;;;;;;5094132;28;20185;-77
2022/04/24 05:25:07;;;;;;;0.70;0.70;;;7.70;99.90;;;;;;5094020;28;20238;-77
2022/04/24 05:27:33;;;;;;;0.70;0.70;;;7.70;99.90;;;;;;5094500;28;20299;-77
2022/04/24 05:29:58;;;;;;;0.80;0.80;;;7.60;99.90;;;;;;5092549;28;20308;-76
2022/04/24 05:32:24;;;;;;;0.70;0.70;;;7.60;99.90;;;;;;5093498;28;20363;-76
2022/04/24 05:34:50;;;;;;;0.80;0.80;;;7.60;99.90;;;;;;5093378;28;20178;-77
2022/04/24 05:37:16;;;;;;;0.70;0.70;;;7.60;99.90;;;;;;5093316;28;20182;-77
2022/04/24 05:39:41;;;;;;;0.70;0.70;;;7.60;99.90;;;;;;5092916;28;20197;-77
2022/04/24 05:42:07;;;;;;;0.70;0.70;;;7.60;99.90;;;;;;5093064;28;20289;-76
2022/04/24 05:44:33;;;;;;;0.80;0.80;;;7.60;99.90;;;;;;5093111;28;20177;-76
2022/04/24 05:46:59;;;;;;;0.70;0.70;;;7.50;99.90;;;;;;5092935;28;20213;-76
2022/04/24 05:49:25;;;;;;;0.70;0.70;;;7.60;99.90;;;;;;5092512;28;20169;-77
2022/04/24 05:51:50;;;;;;;0.70;0.70;;;7.60;99.90;;;;;;5093145;28;20201;-83
2022/04/24 05:54:16;;;;;;;0.70;0.70;;;7.50;99.90;;;;;;5093365;28;20170;-76
2022/04/24 05:56:42;;;;;;;0.70;0.70;;;7.50;99.90;;;;;;5093032;28;20176;-75
2022/04/24 05:59:08;;;;;;;0.80;0.80;;;7.40;99.90;;;;;;5092381;28;20174;-76
2022/04/24 06:01:34;;;;;;;0.77;0.77;;;7.40;99.90;;;;;;5092955;28;20226;-76
2022/04/24 06:03:59;;;;;;;0.70;0.70;;;7.40;99.90;;;;;;5092800;28;20262;-76
2022/04/24 06:06:25;;;;;;;0.70;0.70;;;7.40;99.90;;;;;;5092738;28;20284;-76
2022/04/24 06:08:51;;;;;;;0.70;0.70;;;7.40;99.90;;;;;;5092293;28;20184;-76
2022/04/24 06:11:18;;;;;;;0.70;0.70;;;7.30;99.90;;;;;;5092634;28;20288;-76
2022/04/24 06:13:45;;;;;;;0.70;0.70;;;7.30;99.90;;;;;;5092718;28;20253;-76
2022/04/24 06:16:10;;;;;;;0.73;0.73;;;7.40;99.90;;;;;;5092529;28;20836;-76
2022/04/24 06:18:36;;;;;;;0.60;0.60;;;7.40;99.90;;;;;;5092717;28;20286;-75
2022/04/24 06:21:02;;;;;;;0.70;0.70;;;7.30;99.90;;;;;;5092100;28;20705;-76
2022/04/24 06:23:29;;;;;;;0.70;0.70;;;7.40;99.90;;;;;;5092261;28;20227;-76
2022/04/24 06:25:55;;;;;;;0.70;0.70;;;7.40;99.90;;;;;;5092531;28;20185;-77
2022/04/24 06:28:20;;;;;;;0.70;0.70;;;7.40;99.90;;;;;;5092542;28;20221;-76
2022/04/24 06:30:47;;;;;;;0.70;0.70;;;7.50;99.90;;;;;;5091945;28;20186;-76
2022/04/24 06:33:14;;;;;;;0.60;0.60;;;7.50;99.90;;;;;;5092277;28;20639;-75
2022/04/24 06:35:41;;;;;;;0.60;0.60;;;7.50;99.90;;;;;;5092008;28;20552;-76
2022/04/24 06:38:07;;;;;;;0.70;0.70;;;7.50;99.90;;;;;;5092084;28;20272;-76
2022/04/24 06:40:33;;;;;;;0.70;0.70;;;7.60;99.90;;;;;;5090414;28;20239;-76
2022/04/24 06:43:06;;;;;;;0.70;0.70;;;7.60;99.90;;;;;;5091989;28;20490;-76
2022/04/24 06:45:33;;;;;;;0.80;0.80;;;7.60;99.90;;;;;;5092214;28;20522;-76
2022/04/24 06:48:06;;;;;;;0.60;0.60;;;7.60;99.90;;;;;;5092209;28;20216;-76
2022/04/24 06:50:33;;;;;;;0.70;0.70;;;7.60;99.90;;;;;;5091211;28;20674;-76
2022/04/24 06:53:01;;;;;;;0.60;0.60;;;7.60;99.90;;;;;;5091965;28;20173;-76
2022/04/24 06:55:28;;;;;;;0.60;0.60;;;7.60;99.90;;;;;;5090959;28;20590;-76
2022/04/24 06:57:54;;;;;;;0.67;0.67;;;7.60;99.90;;;;;;5085088;28;20548;-75
2022/04/24 07:00:21;;;;;;;0.70;0.70;;;7.80;99.90;;;;;;5091275;28;20194;-75
2022/04/24 07:02:48;;;;;;;0.70;0.70;;;7.70;99.90;;;;;;5091219;28;20177;-75
2022/04/24 07:05:14;;;;;;;0.80;0.80;;;7.80;99.90;;;;;;5091728;28;20255;-75
2022/04/24 07:07:41;;;;;;;0.70;0.70;;;7.90;99.90;;;;;;5087833;28;20218;-75
2022/04/24 07:10:07;;;;;;;0.60;0.60;;;7.60;99.90;;;;;;5090926;28;20185;-74
2022/04/24 07:12:47;;;;;;;0.70;0.70;;;7.70;99.90;;;;;;5090788;28;20193;-75
2022/04/24 07:15:17;;;;;;;0.70;0.70;;;7.70;99.90;;;;;;5091479;28;20173;-75
2022/04/24 07:17:43;;;;;;;0.60;0.60;;;7.60;99.90;;;;;;5091452;28;20250;-75
2022/04/24 07:20:10;;;;;;;0.77;0.77;;;7.70;99.90;;;;;;5091153;28;20261;-75
2022/04/24 07:22:50;;;;;;;0.70;0.70;;;7.50;99.90;;;;;;5091400;28;20556;-75
2022/04/24 07:25:27;;;;;;;0.70;0.70;;;7.60;99.90;;;;;;5091849;28;20264;-76
2022/04/24 07:27:53;;;;;;;0.70;0.70;;;7.60;99.90;;;;;;5091013;28;20213;-76
2022/04/24 07:30:19;;;;;;;0.70;0.70;;;7.80;99.90;;;;;;5090745;28;20609;-75
2022/04/24 07:32:53;;;;;;;0.70;0.70;;;7.60;99.90;;;;;;5091243;28;20170;-75
2022/04/24 07:35:21;;;;;;;0.73;0.73;;;7.90;99.90;;;;;;5091318;28;20186;-76
2022/04/24 07:37:47;;;;;;;0.60;0.60;;;7.80;99.90;;;;;;5091603;28;20268;-76
2022/04/24 07:40:15;;;;;;;0.70;0.70;;;7.70;99.90;;;;;;5091204;28;20204;-77
2022/04/24 07:42:49;;;;;;;0.70;0.70;;;7.80;99.90;;;;;;5091732;28;20178;-77
2022/04/24 07:45:19;;;;;;;0.70;0.70;;;7.70;99.90;;;;;;5092149;28;20178;-77
2022/04/24 07:47:46;;;;;;;0.70;0.70;;;7.80;99.90;;;;;;5092083;28;20217;-77
2022/04/24 07:50:12;;;;;;;0.60;0.60;;;7.80;99.90;;;;;;5091733;28;20181;-78
2022/04/24 07:52:37;;;;;;;0.70;0.70;;;7.80;99.90;;;;;;5094665;28;20189;-77
2022/04/24 07:55:03;;;;;;;0.70;0.70;;;7.80;99.90;;;;;;5086842;28;20170;-76
2022/04/24 07:57:29;;;;;;;0.70;0.70;;;7.80;99.90;;;;;;5090017;28;20189;-77
2022/04/24 07:59:54;;;;;;;0.63;0.63;;;7.70;99.90;;;;;;5094968;28;20267;-76
2022/04/24 08:02:20;;;;;;;0.63;0.63;;;7.70;99.90;;;;;;5095622;28;20257;-75
2022/04/24 08:04:45;;;;;;;0.70;0.70;;;7.70;99.90;;;;;;5096621;28;20184;-76
2022/04/24 08:07:11;;;;;;;0.70;0.70;;;7.70;99.90;;;;;;5110415;28;20198;-76
2022/04/24 08:09:37;;;;;;;0.70;0.70;;;7.80;99.90;;;;;;5108318;28;20198;-76
2022/04/24 08:12:03;;;;;;;0.70;0.70;;;7.80;99.90;;;;;;5105504;28;20201;-77
2022/04/24 08:14:29;;;;;;;0.63;0.63;;;7.70;99.90;;;;;;5097643;28;20272;-77
2022/04/24 08:16:55;;;;;;;0.70;0.70;;;7.80;99.90;;;;;;5097952;28;20173;-76
2022/04/24 08:19:21;;;;;;;0.60;0.60;;;7.80;99.90;;;;;;5098100;28;20181;-76
2022/04/24 08:21:46;;;;;;;0.60;0.60;;;7.80;99.90;;;;;;5096388;28;20212;-76
2022/04/24 08:24:12;;;;;;;0.70;0.70;;;7.80;99.90;;;;;;5095320;28;20210;-76
2022/04/24 08:26:38;;;;;;;0.60;0.60;;;7.80;99.90;;;;;;5095689;28;20266;-77
2022/04/24 08:29:03;;;;;;;0.70;0.70;;;7.80;99.90;;;;;;5094728;28;20678;-77
2022/04/24 08:31:29;;;;;;;0.63;0.63;;;7.80;99.90;;;;;;5094226;28;20202;-76
2022/04/24 08:33:57;;;;;;;0.70;0.70;;;7.70;99.90;;;;;;5094586;28;20178;-77
2022/04/24 08:36:23;;;;;;;0.70;0.70;;;7.60;99.90;;;;;;5095079;28;20201;-76
2022/04/24 08:38:49;;;;;;;0.60;0.60;;;7.70;99.90;;;;;;5094222;28;20173;-76
2022/04/24 08:41:21;;;;;;;0.60;0.60;;;7.60;99.90;;;;;;5093977;28;20194;-76
2022/04/24 08:43:47;;;;;;;0.70;0.70;;;7.80;99.90;;;;;;5095240;28;20223;-77
2022/04/24 08:46:13;;;;;;;0.70;0.70;;;7.90;99.90;;;;;;5095350;28;20173;-76
2022/04/24 08:48:40;;;;;;;0.60;0.60;;;7.80;99.90;;;;;;5094596;28;20177;-76
2022/04/24 08:51:08;;;;;;;0.70;0.70;;;7.70;99.90;;;;;;5094109;28;20216;-77
2022/04/24 08:53:35;;;;;;;0.77;0.77;;;7.80;99.90;;;;;;5084887;28;20582;-77
2022/04/24 08:56:01;;;;;;;0.70;0.70;;;7.80;99.90;;;;;;5081230;28;20189;-75
2022/04/24 08:58:27;;;;;;;0.70;0.70;;;7.80;99.90;;;;;;5093843;28;20177;-76
2022/04/24 09:00:52;;;;;;;0.70;0.70;;;7.80;99.90;;;;;;5093006;28;20285;-76
2022/04/24 09:03:18;;;;;;;0.60;0.60;;;7.90;99.90;;;;;;5093198;28;20515;-76
2022/04/24 09:05:44;;;;;;;0.60;0.60;;;7.90;99.90;;;;;;5094214;28;20166;-76
2022/04/24 09:08:13;;;;;;;0.60;0.60;;;7.90;99.90;;;;;;5094080;28;20205;-76
2022/04/24 09:10:56;;;;;;;0.70;0.70;;;7.90;99.90;;;;;;5086820;28;20767;-76
2022/04/24 09:13:25;;;;;;;0.70;0.70;;;8.00;99.90;;;;;;5081556;28;20193;-76
2022/04/24 09:15:55;;;;;;;0.70;0.70;;;7.90;99.90;;;;;;5083871;28;20186;-76
2022/04/24 09:18:21;;;;;;;0.70;0.70;;;7.90;99.90;;;;;;5091442;28;20178;-76
2022/04/24 09:20:55;;;;;;;0.70;0.70;;;8.00;99.90;;;;;;5086260;28;20207;-77
2022/04/24 09:23:20;;;;;;;0.60;0.60;;;8.00;99.90;;;;;;5079084;28;20182;-77
2022/04/24 09:25:46;;;;;;;0.70;0.70;;;8.20;99.90;;;;;;5094567;28;20205;-76
2022/04/24 09:28:12;;;;;;;0.70;0.70;;;8.20;99.90;;;;;;5093816;28;20300;-77
2022/04/24 09:30:48;;;;;;;0.60;0.60;;;8.10;99.90;;;;;;5094868;28;20194;-76
2022/04/24 09:33:14;;;;;;;0.70;0.70;;;8.20;99.90;;;;;;5094851;28;20252;-77
2022/04/24 09:35:42;;;;;;;0.70;0.70;;;8.10;99.90;;;;;;5093981;28;20476;-77
2022/04/24 09:38:08;;;;;;;0.60;0.60;;;8.10;99.90;;;;;;5094507;28;20596;-76
2022/04/24 09:40:38;;;;;;;0.80;0.80;;;8.10;99.90;;;;;;5094139;28;20213;-76
2022/04/24 09:43:07;;;;;;;0.60;0.60;;;8.20;99.90;;;;;;5093917;28;20180;-76
2022/04/24 09:45:32;;;;;;;0.60;0.60;;;8.10;99.90;;;;;;5093258;28;20181;-75
2022/04/24 09:47:59;;;;;;;0.60;0.60;;;8.20;99.90;;;;;;5092502;28;20221;-76
2022/04/24 09:50:29;;;;;;;0.60;0.60;;;8.20;99.90;;;;;;5088314;28;20225;-76
2022/04/24 09:52:55;;;;;;;0.70;0.70;;;8.20;99.90;;;;;;5090710;28;20269;-76
2022/04/24 09:55:22;;;;;;;0.53;0.53;;;8.40;99.90;;;;;;5091771;28;20181;-76
2022/04/24 09:57:48;;;;;;;0.60;0.60;;;8.20;99.90;;;;;;5086767;28;20180;-76
2022/04/24 10:00:15;;;;;;;0.60;0.60;;;8.20;99.90;;;;;;5083402;28;20997;-77
2022/04/24 10:02:42;;;;;;;0.60;0.60;;;8.30;99.90;;;;;;5088739;28;20260;-77
2022/04/24 10:05:09;;;;;;;0.60;0.60;;;8.30;99.90;;;;;;5093767;28;20177;-77
2022/04/24 10:07:35;;;;;;;0.60;0.60;;;8.30;99.90;;;;;;5092976;28;20221;-76
2022/04/24 10:10:01;;;;;;;0.70;0.70;;;8.30;99.90;;;;;;5091558;28;20174;-75
2022/04/24 10:12:26;;;;;;;0.60;0.60;;;8.20;99.90;;;;;;5092746;28;20178;-75
2022/04/24 10:14:54;;;;;;;0.70;0.70;;;8.30;99.90;;;;;;5092375;28;20174;-75
2022/04/24 10:17:43;;;;;;;0.70;0.70;;;8.40;99.90;;;;;;5094102;28;20174;-76
2022/04/24 10:20:08;;;;;;;0.70;0.70;;;8.40;99.90;;;;;;5095035;28;20174;-78
2022/04/24 10:22:47;;;;;;;0.70;0.70;;;8.40;99.90;;;;;;5099413;28;20177;-77
2022/04/24 10:25:15;;;;;;;0.67;0.67;;;8.40;99.90;;;;;;5095456;28;20173;-76
2022/04/24 10:27:40;;;;;;;0.70;0.70;;;8.50;99.90;;;;;;5095933;28;20220;-76
2022/04/24 10:30:07;;;;;;;0.70;0.70;;;8.50;99.90;;;;;;5093342;28;20174;-77
2022/04/24 10:32:33;;;;;;;0.60;0.60;;;8.50;99.90;;;;;;5094306;28;20677;-77
2022/04/24 10:35:00;;;;;;;0.70;0.70;;;8.60;99.90;;;;;;5093257;28;20174;-77
2022/04/24 10:37:33;;;;;;;0.60;0.60;;;8.60;99.90;;;;;;5094455;28;20174;-76
2022/04/24 10:40:00;;;;;;;0.70;0.70;;;8.80;99.90;;;;;;5093090;28;20186;-77
2022/04/24 10:42:44;;;;;;;0.60;0.60;;;8.80;99.90;;;;;;5093992;28;20272;-76
2022/04/24 10:45:14;;;;;;;0.60;0.60;;;8.90;99.90;;;;;;5093821;28;20882;-77
2022/04/24 10:47:50;;;;;;;0.70;0.70;;;8.90;99.90;;;;;;5092295;28;20250;-78
2022/04/24 10:50:18;;;;;;;0.57;0.57;;;9.10;99.90;;;;;;5089580;28;20193;-77
2022/04/24 10:52:46;;;;;;;0.70;0.70;;;9.10;99.90;;;;;;5095702;28;20177;-77
2022/04/24 10:55:17;;;;;;;0.60;0.60;;;9.20;99.90;;;;;;5094793;28;20173;-77
2022/04/24 10:57:48;;;;;;;0.60;0.60;;;9.30;99.90;;;;;;5094411;28;20178;-77
2022/04/24 11:00:24;;;;;;;0.70;0.70;;;9.20;99.90;;;;;;5092993;28;20196;-77
2022/04/24 11:02:51;;;;;;;0.60;0.60;;;9.30;99.90;;;;;;5078573;28;20526;-77
2022/04/24 11:05:23;;;;;;;0.53;0.53;;;9.30;99.90;;;;;;5093743;28;20172;-76
2022/04/24 11:08:00;;;;;;;0.60;0.60;;;9.30;99.90;;;;;;5100800;28;20209;-77
2022/04/24 11:10:26;;;;;;;0.63;0.63;;;9.30;99.90;;;;;;5095070;28;20611;-77
2022/04/24 11:12:54;;;;;;;0.50;0.50;;;9.30;99.90;;;;;;5094389;28;20199;-77
2022/04/24 11:15:20;;;;;;;0.60;0.60;;;9.30;99.90;;;;;;5094437;28;20173;-77
2022/04/24 11:17:45;;;;;;;0.63;0.63;;;9.40;99.90;;;;;;5095735;28;20178;-77
2022/04/24 11:20:13;;;;;;;0.60;0.60;;;9.50;99.90;;;;;;5095445;28;20181;-77
2022/04/24 11:22:55;;;;;;;0.50;0.50;;;9.50;99.90;;;;;;5095608;28;20181;-77
2022/04/24 11:25:24;;;;;;;0.60;0.60;;;9.50;99.90;;;;;;5097465;28;20204;-76
2022/04/24 11:27:52;;;;;;;0.50;0.50;;;9.50;99.90;;;;;;5104517;28;20728;-77
2022/04/24 11:30:19;;;;;;;0.60;0.60;;;9.50;99.90;;;;;;5196152;22;20745;-73
2022/04/24 11:32:57;;;;;;;0.70;0.70;;;9.40;99.90;;;;;;5060322;28;20190;-74
2022/04/24 11:35:23;;;;;;;0.50;0.50;;;9.40;99.90;;;;;;5067371;28;20186;-73
2022/04/24 11:37:48;;;;;;;0.60;0.60;;;9.40;99.90;;;;;;5070393;28;20244;-74
2022/04/24 11:40:14;;;;;;;0.70;0.70;;;9.50;99.90;;;;;;5062188;28;20285;-74
2022/04/24 11:42:39;;;;;;;0.70;0.70;;;9.60;99.90;;;;;;5066304;28;20174;-74
2022/04/24 11:51:02;;;;;;;0.60;0.60;;;10.00;99.90;;;;;;5009106;28;20269;-72
2022/04/24 11:53:28;;;;;;;0.77;0.77;;;10.10;99.90;;;;;;5009966;28;20184;-70
2022/04/24 11:56:01;;;;;;;0.63;0.63;;;10.10;99.90;;;;;;5032289;28;20579;-72
2022/04/24 11:58:38;;;;;;;0.60;0.60;;;10.20;99.90;;;;;;5065404;28;20706;-70
2022/04/24 12:01:07;;;;;;;0.50;0.50;;;10.20;99.90;;;;;;5065930;28;20259;-71
2022/04/24 12:03:34;;;;;;;0.60;0.60;;;10.30;99.90;;;;;;5062659;28;20187;-72
2022/04/24 12:06:02;;;;;;;0.60;0.60;;;10.30;99.90;;;;;;5065672;28;20183;-71
2022/04/24 12:08:40;;;;;;;0.60;0.60;;;10.20;99.90;;;;;;5064848;28;20218;-72
2022/04/24 12:11:06;;;;;;;0.70;0.70;;;10.20;99.90;;;;;;5068558;28;20194;-71
2022/04/24 12:13:33;;;;;;;0.70;0.70;;;10.20;99.90;;;;;;5059251;28;20667;-71
2022/04/24 12:15:59;;;;;;;0.60;0.60;;;10.20;99.90;;;;;;5060913;28;20544;-72
2022/04/24 12:18:25;;;;;;;0.60;0.60;;;10.10;99.90;;;;;;5064786;28;20190;-72
2022/04/24 12:20:52;;;;;;;0.60;0.60;;;10.10;99.90;;;;;;5067548;28;20294;-71
2022/04/24 12:23:18;;;;;;;0.60;0.60;;;10.10;99.90;;;;;;5057642;28;20812;-72
2022/04/24 12:25:49;;;;;;;0.60;0.60;;;10.00;99.90;;;;;;5071141;28;20663;-72
2022/04/24 12:28:41;;;;;;;0.60;0.60;;;10.10;99.90;;;;;;5074076;28;20202;-71
2022/04/24 12:31:18;;;;;;;0.63;0.63;;;10.20;99.90;;;;;;5056053;28;20303;-71
2022/04/24 12:33:48;;;;;;;0.60;0.60;;;10.20;99.90;;;;;;5058597;28;20244;-71
2022/04/24 12:36:15;;;;;;;0.60;0.60;;;10.20;99.90;;;;;;5065031;28;20178;-71
2022/04/24 12:38:55;;;;;;;0.70;0.70;;;10.30;99.90;;;;;;5065714;28;20198;-72
2022/04/24 12:41:23;;;;;;;0.50;0.50;;;10.40;99.90;;;;;;5056900;28;20199;-71
2022/04/24 12:43:49;;;;;;;0.60;0.60;;;10.30;99.90;;;;;;5067910;28;20179;-72
2022/04/24 12:46:15;;;;;;;0.60;0.60;;;10.40;99.90;;;;;;5061943;28;20179;-72
2022/04/24 12:48:51;;;;;;;0.60;0.60;;;10.20;99.90;;;;;;5061249;28;20213;-72
2022/04/24 12:51:18;;;;;;;0.60;0.60;;;10.20;99.90;;;;;;5069910;28;20205;-71
2022/04/24 12:53:44;;;;;;;0.50;0.50;;;10.20;99.90;;;;;;5058023;28;20445;-72
2022/04/24 12:56:12;;;;;;;0.60;0.60;;;10.20;99.90;;;;;;5065446;28;20292;-71
2022/04/24 12:58:37;;;;;;;0.50;0.50;;;10.30;99.90;;;;;;5065120;28;20189;-72
2022/04/24 13:01:03;;;;;;;0.60;0.60;;;10.10;99.90;;;;;;5057474;28;20293;-72